Time;durP1;ratioP1;P1;durP2;ratioP2;P2;SDS_P1;SDS_P2;PMS_P1;PMS_P2;Temp;Humidity;BMP_temperature;BMP_pressure;BME280_temperature;BME280_humidity;BME280_pressure;Samples;Min_cycle;Max_cycle;Signal;HPM_P1;HPM_P2
2022/12/15 00:40:58;;;;;;;4.93;3.67;;;;;;;;;;5016181;28;20036;-83
2022/12/15 00:43:27;;;;;;;6.05;3.78;;;;;;;;;;5022691;28;20363;-82
2022/12/15 00:48:38;;;;;;;4.10;2.85;;;;;;;;;;5021069;28;20072;-83
2022/12/15 00:51:03;;;;;;;3.20;2.75;;;;;;;;;;5031831;28;20037;-83
2022/12/15 01:21:01;;;;;;;4.38;3.67;;;;;;;;;;5021795;28;20036;-85
2022/12/15 01:23:27;;;;;;;3.97;2.60;;;;;;;;;;5024190;28;20044;-84
2022/12/15 01:25:53;;;;;;;3.28;2.45;;;;;;;;;;5025446;28;20112;-84
2022/12/15 01:28:20;;;;;;;2.63;2.15;;;;;;;;;;5021297;28;20033;-84
2022/12/15 01:30:46;;;;;;;2.33;2.13;;;;;;;;;;5020896;28;20478;-84
2022/12/15 01:33:13;;;;;;;4.05;2.00;;;;;;;;;;5022574;28;20026;-84
2022/12/15 01:35:38;;;;;;;3.90;2.28;;;;;;;;;;5018047;28;20028;-84
2022/12/15 01:38:03;;;;;;;3.08;2.25;;;;;;;;;;5024971;28;20380;-83
2022/12/15 01:40:44;;;;;;;4.00;2.78;;;;;;;;;;5019701;28;20026;-84
2022/12/15 01:43:37;;;;;;;3.65;1.95;;;;;;;;;;5020724;28;20034;-85
2022/12/15 01:46:03;;;;;;;2.35;1.98;;;;;;;;;;5017066;28;20152;-83
2022/12/15 01:48:34;;;;;;;4.25;1.70;;;;;;;;;;5020164;28;20112;-84
2022/12/15 01:51:02;;;;;;;2.55;1.67;;;;;;;;;;5025926;28;20029;-84
2022/12/15 01:53:34;;;;;;;3.92;1.85;;;;;;;;;;5022140;28;20030;-84
2022/12/15 01:56:00;;;;;;;1.52;1.35;;;;;;;;;;5016437;28;20084;-85
2022/12/15 01:58:26;;;;;;;2.25;1.55;;;;;;;;;;5018341;28;20037;-84
2022/12/15 02:00:52;;;;;;;3.17;2.00;;;;;;;;;;5016212;28;20056;-84
2022/12/15 02:03:18;;;;;;;2.67;2.47;;;;;;;;;;5018024;28;20034;-84
2022/12/15 02:05:44;;;;;;;0.90;0.88;;;;;;;;;;5021904;28;20040;-85
2022/12/15 02:08:10;;;;;;;1.85;1.75;;;;;;;;;;5016450;28;20030;-85
2022/12/15 02:10:58;;;;;;;2.80;2.10;;;;;;;;;;5023731;28;20017;-84
2022/12/15 02:13:41;;;;;;;2.05;1.48;;;;;;;;;;5022660;28;20529;-83
2022/12/15 02:16:26;;;;;;;3.55;1.85;;;;;;;;;;5018256;28;20025;-85
2022/12/15 02:19:01;;;;;;;2.00;1.38;;;;;;;;;;5025121;28;20073;-84
2022/12/15 02:21:39;;;;;;;2.28;1.67;;;;;;;;;;5028464;28;20493;-85
2022/12/15 02:24:10;;;;;;;1.05;1.05;;;;;;;;;;5019826;28;20033;-85
2022/12/15 02:27:00;;;;;;;1.10;1.05;;;;;;;;;;5021572;28;20100;-84
2022/12/15 02:29:25;;;;;;;;;;;;;;;;;;5017760;28;20482;-84
2022/12/15 02:31:59;;;;;;;3.45;1.80;;;;;;;;;;5020533;28;19914;-85
2022/12/15 02:34:44;;;;;;;2.00;1.30;;;;;;;;;;5030019;28;20056;-85
2022/12/15 02:37:18;;;;;;;2.00;1.25;;;;;;;;;;5017788;28;20037;-84
2022/12/15 02:39:44;;;;;;;3.58;2.22;;;;;;;;;;5025277;28;20362;-85
2022/12/15 02:42:10;;;;;;;4.35;2.00;;;;;;;;;;5022350;28;20163;-86
2022/12/15 02:44:45;;;;;;;3.70;2.45;;;;;;;;;;5024139;28;20492;-86
2022/12/15 02:47:19;;;;;;;5.95;3.10;;;;;;;;;;5021345;28;20037;-85
2022/12/15 02:50:07;;;;;;;2.65;1.83;;;;;;;;;;5028763;28;20021;-85
2022/12/15 02:52:57;;;;;;;8.13;2.55;;;;;;;;;;5021503;28;20493;-84
2022/12/15 02:55:47;;;;;;;1.88;1.27;;;;;;;;;;5022759;28;20355;-87
2022/12/15 02:58:49;;;;;;;5.40;4.03;;;;;;;;;;5019103;28;20899;-85
2022/12/15 03:01:29;;;;;;;4.18;2.50;;;;;;;;;;5024106;28;20113;-85
2022/12/15 03:03:56;;;;;;;2.72;2.47;;;;;;;;;;5028948;28;20033;-86
2022/12/15 03:06:25;;;;;;;2.50;2.20;;;;;;;;;;5025745;28;20033;-85
2022/12/15 03:08:50;;;;;;;5.43;3.58;;;;;;;;;;5024374;28;20033;-85
2022/12/15 03:11:16;;;;;;;8.35;3.72;;;;;;;;;;5020915;28;20044;-84
2022/12/15 03:13:41;;;;;;;3.45;2.70;;;;;;;;;;5020677;28;20853;-87
2022/12/15 03:16:07;;;;;;;7.10;4.78;;;;;;;;;;5023125;28;20037;-84
2022/12/15 03:18:33;;;;;;;5.97;3.08;;;;;;;;;;5018328;28;20083;-84
2022/12/15 03:20:58;;;;;;;8.32;2.78;;;;;;;;;;5023082;28;20033;-84
2022/12/15 03:23:24;;;;;;;20.52;13.05;;;;;;;;;;5023269;28;20489;-84
2022/12/15 03:25:49;;;;;;;6.78;5.43;;;;;;;;;;5022348;28;20017;-87
2022/12/15 03:28:15;;;;;;;4.55;3.08;;;;;;;;;;5019051;28;20038;-85
2022/12/15 03:30:40;;;;;;;7.10;4.30;;;;;;;;;;5020747;28;20032;-84
2022/12/15 03:33:05;;;;;;;7.78;4.72;;;;;;;;;;5025396;28;20517;-84
2022/12/15 03:35:32;;;;;;;2.85;2.55;;;;;;;;;;5021633;28;20022;-84
2022/12/15 03:38:00;;;;;;;4.00;2.70;;;;;;;;;;5025744;28;20421;-84
2022/12/15 03:40:25;;;;;;;6.22;5.05;;;;;;;;;;5022184;28;20026;-83
2022/12/15 03:42:51;;;;;;;4.63;2.72;;;;;;;;;;5020330;28;20034;-84
2022/12/15 03:45:22;;;;;;;3.20;2.33;;;;;;;;;;5023425;28;20025;-83
2022/12/15 03:47:48;;;;;;;17.58;12.02;;;;;;;;;;5019030;28;20092;-82
2022/12/15 03:50:16;;;;;;;10.00;4.20;;;;;;;;;;5022237;28;20029;-86
2022/12/15 03:52:42;;;;;;;3.20;2.95;;;;;;;;;;5021034;28;20039;-83
2022/12/15 03:55:08;;;;;;;3.63;2.95;;;;;;;;;;5019610;28;20022;-84
2022/12/15 03:57:34;;;;;;;8.45;3.83;;;;;;;;;;5028348;28;20029;-83
2022/12/15 04:00:00;;;;;;;2.83;2.55;;;;;;;;;;5022270;28;20367;-83
2022/12/15 04:02:25;;;;;;;3.40;2.78;;;;;;;;;;5024061;28;20029;-83
2022/12/15 04:04:51;;;;;;;8.75;5.28;;;;;;;;;;5020737;28;20120;-83
2022/12/15 04:07:16;;;;;;;4.57;3.47;;;;;;;;;;5026051;28;20450;-83
2022/12/15 04:09:42;;;;;;;3.72;2.47;;;;;;;;;;5022075;28;20406;-84
2022/12/15 04:12:09;;;;;;;3.95;2.60;;;;;;;;;;5027848;28;20339;-83
2022/12/15 04:14:35;;;;;;;3.92;2.45;;;;;;;;;;5020551;28;20381;-83
2022/12/15 04:17:00;;;;;;;3.13;2.83;;;;;;;;;;5029318;28;20093;-83
2022/12/15 04:22:09;;;;;;;4.13;3.42;;;;;;;;;;5021646;28;20056;-84
2022/12/15 05:33:01;;;;;;;8.07;4.60;;;;;;;;;;5021122;28;20048;-84
2022/12/15 05:35:27;;;;;;;7.82;5.00;;;;;;;;;;5021718;28;20034;-82
2022/12/15 05:37:52;;;;;;;7.22;4.55;;;;;;;;;;5023726;28;20416;-82
2022/12/15 05:40:17;;;;;;;6.25;4.25;;;;;;;;;;5019345;28;20032;-82
2022/12/15 05:42:43;;;;;;;4.68;3.70;;;;;;;;;;5020804;28;20052;-84
2022/12/15 05:45:09;;;;;;;6.57;3.88;;;;;;;;;;5022395;28;20503;-84
2022/12/15 05:47:34;;;;;;;2.17;1.85;;;;;;;;;;5014081;28;20029;-84
2022/12/15 05:50:00;;;;;;;1.20;1.13;;;;;;;;;;5018860;28;20060;-83
2022/12/15 05:52:25;;;;;;;2.75;1.77;;;;;;;;;;5016570;28;20033;-84
2022/12/15 05:54:50;;;;;;;1.40;1.30;;;;;;;;;;5021869;28;20501;-84
2022/12/15 05:57:16;;;;;;;2.10;1.98;;;;;;;;;;5024602;28;20025;-84
2022/12/15 05:59:41;;;;;;;9.50;3.03;;;;;;;;;;5016313;28;20030;-84
2022/12/15 06:02:07;;;;;;;6.63;4.47;;;;;;;;;;5018854;28;20478;-84
2022/12/15 06:04:32;;;;;;;5.45;4.72;;;;;;;;;;5015377;28;20119;-84
2022/12/15 06:06:57;;;;;;;4.75;3.67;;;;;;;;;;5021106;28;20049;-84
2022/12/15 06:09:23;;;;;;;5.55;4.03;;;;;;;;;;5019350;28;20025;-85
2022/12/15 06:11:48;;;;;;;14.95;7.82;;;;;;;;;;5019376;28;20025;-84
2022/12/15 06:14:14;;;;;;;13.60;9.80;;;;;;;;;;5019468;28;20029;-84
2022/12/15 06:16:39;;;;;;;3.83;3.28;;;;;;;;;;5022351;28;20095;-84
2022/12/15 06:19:04;;;;;;;11.52;5.45;;;;;;;;;;5023441;28;20026;-84
2022/12/15 06:21:36;;;;;;;7.40;4.63;;;;;;;;;;5025978;28;20030;-85
2022/12/15 06:24:05;;;;;;;10.82;6.05;;;;;;;;;;5026342;28;20026;-85
2022/12/15 06:26:36;;;;;;;11.68;6.72;;;;;;;;;;5022834;28;20081;-86
2022/12/15 06:29:04;;;;;;;11.13;6.18;;;;;;;;;;5024168;28;20034;-84
2022/12/15 06:31:30;;;;;;;9.00;5.45;;;;;;;;;;5025578;28;20355;-85
2022/12/15 06:33:56;;;;;;;9.27;6.47;;;;;;;;;;5018865;28;20029;-85
2022/12/15 06:36:23;;;;;;;11.85;5.53;;;;;;;;;;5025496;28;20438;-84
2022/12/15 06:38:48;;;;;;;6.32;5.60;;;;;;;;;;5023505;28;20109;-85
2022/12/15 06:41:16;;;;;;;9.77;5.22;;;;;;;;;;5023925;28;20116;-85
2022/12/15 06:43:49;;;;;;;12.20;6.13;;;;;;;;;;5024954;28;20032;-83
2022/12/15 06:46:14;;;;;;;7.75;6.10;;;;;;;;;;5024422;28;20024;-84
2022/12/15 06:48:43;;;;;;;6.97;4.30;;;;;;;;;;5021658;28;20034;-83
2022/12/15 06:51:09;;;;;;;9.48;7.00;;;;;;;;;;5024146;28;20098;-84
2022/12/15 06:53:37;;;;;;;15.00;8.00;;;;;;;;;;5020946;28;20086;-82
2022/12/15 06:56:06;;;;;;;11.23;6.47;;;;;;;;;;5022955;28;20033;-82
2022/12/15 06:58:31;;;;;;;7.43;5.95;;;;;;;;;;5023166;28;20045;-83
2022/12/15 07:00:57;;;;;;;7.78;5.03;;;;;;;;;;5020996;28;20038;-83
2022/12/15 07:03:23;;;;;;;9.75;5.57;;;;;;;;;;5026084;28;20110;-83
2022/12/15 07:06:08;;;;;;;5.60;4.82;;;;;;;;;;5020372;28;20080;-84
2022/12/15 07:08:34;;;;;;;7.32;4.65;;;;;;;;;;5020194;28;20120;-81
2022/12/15 07:11:02;;;;;;;12.02;8.20;;;;;;;;;;5030784;28;20105;-81
2022/12/15 07:13:28;;;;;;;20.02;10.63;;;;;;;;;;5027217;28;21236;-81
2022/12/15 07:15:53;;;;;;;14.75;7.10;;;;;;;;;;5021569;28;20033;-81
2022/12/15 07:18:19;;;;;;;7.68;5.32;;;;;;;;;;5026168;28;20034;-83
2022/12/15 07:20:45;;;;;;;14.55;8.57;;;;;;;;;;5020379;28;20157;-81
2022/12/15 07:23:10;;;;;;;12.63;7.18;;;;;;;;;;5016691;28;20097;-82
2022/12/15 07:25:36;;;;;;;11.32;5.80;;;;;;;;;;5019032;28;20135;-83
2022/12/15 07:28:02;;;;;;;9.55;4.88;;;;;;;;;;5027176;28;20033;-81
2022/12/15 07:30:28;;;;;;;7.90;5.20;;;;;;;;;;5020336;28;20043;-81
2022/12/15 07:32:53;;;;;;;19.40;8.13;;;;;;;;;;5025323;28;20105;-81
2022/12/15 07:35:19;;;;;;;10.43;5.45;;;;;;;;;;5029052;28;20058;-81
2022/12/15 07:37:44;;;;;;;5.88;5.28;;;;;;;;;;5018118;28;20052;-81
2022/12/15 07:40:10;;;;;;;9.23;6.18;;;;;;;;;;5024221;28;20046;-81
2022/12/15 07:42:36;;;;;;;7.95;6.32;;;;;;;;;;5021791;28;20126;-81
2022/12/15 07:45:02;;;;;;;8.23;6.55;;;;;;;;;;5019382;28;20108;-81
2022/12/15 07:47:28;;;;;;;7.45;4.18;;;;;;;;;;5023809;28;20474;-81
2022/12/15 07:49:53;;;;;;;8.57;5.03;;;;;;;;;;5021259;28;20041;-81
2022/12/15 07:52:19;;;;;;;5.10;4.00;;;;;;;;;;5022087;28;20022;-81
2022/12/15 07:54:44;;;;;;;13.02;4.95;;;;;;;;;;5023020;28;20038;-81
2022/12/15 07:57:10;;;;;;;3.17;2.85;;;;;;;;;;5024770;28;20100;-81
2022/12/15 07:59:35;;;;;;;3.80;2.65;;;;;;;;;;5017882;28;20030;-81
2022/12/15 08:02:03;;;;;;;3.83;2.85;;;;;;;;;;5024385;28;20460;-81
2022/12/15 08:04:29;;;;;;;6.72;2.45;;;;;;;;;;5020479;28;20077;-82
2022/12/15 08:06:56;;;;;;;2.35;2.15;;;;;;;;;;5021390;28;20029;-81
2022/12/15 08:09:21;;;;;;;3.00;2.22;;;;;;;;;;5021907;28;20763;-82
2022/12/15 08:11:46;;;;;;;5.32;2.78;;;;;;;;;;5021736;28;20105;-81
2022/12/15 08:14:12;;;;;;;2.53;1.95;;;;;;;;;;5020437;28;20384;-81
2022/12/15 08:16:38;;;;;;;3.28;1.67;;;;;;;;;;5024538;28;20017;-80
2022/12/15 08:19:05;;;;;;;6.45;3.13;;;;;;;;;;5016133;28;20104;-81
2022/12/15 08:21:32;;;;;;;7.78;4.78;;;;;;;;;;5018102;28;20121;-81
2022/12/15 08:23:59;;;;;;;8.60;4.82;;;;;;;;;;5017369;28;20377;-81
2022/12/15 08:26:25;;;;;;;8.40;4.18;;;;;;;;;;5024317;28;20032;-82
2022/12/15 08:28:51;;;;;;;3.65;3.15;;;;;;;;;;5021219;28;20481;-82
2022/12/15 08:31:19;;;;;;;4.32;2.92;;;;;;;;;;5027157;28;20533;-82
2022/12/15 08:33:45;;;;;;;3.50;2.67;;;;;;;;;;5021493;28;20033;-81
2022/12/15 08:36:13;;;;;;;3.10;2.08;;;;;;;;;;5018721;28;20481;-82
2022/12/15 08:38:40;;;;;;;4.40;3.05;;;;;;;;;;5014580;28;20018;-82
2022/12/15 08:41:24;;;;;;;7.80;3.33;;;;;;;;;;5021802;28;20026;-82
2022/12/15 08:43:50;;;;;;;7.75;3.22;;;;;;;;;;5020385;28;20017;-83
2022/12/15 08:46:18;;;;;;;6.18;3.83;;;;;;;;;;5019789;28;20080;-83
2022/12/15 08:48:44;;;;;;;6.13;5.13;;;;;;;;;;5018279;28;20079;-83
2022/12/15 08:51:10;;;;;;;17.52;5.80;;;;;;;;;;5023882;28;20030;-82
2022/12/15 08:53:37;;;;;;;8.45;6.00;;;;;;;;;;5019911;28;20022;-83
2022/12/15 08:56:08;;;;;;;13.95;7.45;;;;;;;;;;5024829;28;20034;-83
2022/12/15 08:58:34;;;;;;;9.43;6.63;;;;;;;;;;5015883;28;20717;-83
2022/12/15 09:01:11;;;;;;;8.95;6.85;;;;;;;;;;5015374;28;20046;-82
2022/12/15 09:03:37;;;;;;;9.70;5.07;;;;;;;;;;5019165;28;20029;-84
2022/12/15 09:06:04;;;;;;;8.38;6.15;;;;;;;;;;5020533;28;20033;-83
2022/12/15 09:08:29;;;;;;;12.93;4.47;;;;;;;;;;5011028;28;20485;-83
2022/12/15 09:10:59;;;;;;;7.63;5.00;;;;;;;;;;5016600;28;20064;-84
2022/12/15 09:13:24;;;;;;;4.55;3.08;;;;;;;;;;5021221;28;20026;-82
2022/12/15 09:15:57;;;;;;;4.22;2.83;;;;;;;;;;5016183;28;20103;-83
2022/12/15 09:18:23;;;;;;;6.07;3.70;;;;;;;;;;5022012;28;20342;-83
2022/12/15 09:20:49;;;;;;;5.53;3.40;;;;;;;;;;5021262;28;20036;-83
2022/12/15 09:23:14;;;;;;;4.40;2.80;;;;;;;;;;5014353;28;20036;-83
2022/12/15 09:25:39;;;;;;;6.35;5.03;;;;;;;;;;5017965;28;20029;-85
2022/12/15 09:28:05;;;;;;;4.43;3.22;;;;;;;;;;5019222;28;20029;-85
2022/12/15 09:30:30;;;;;;;6.32;3.20;;;;;;;;;;5015069;28;20402;-83
2022/12/15 09:32:56;;;;;;;5.13;3.13;;;;;;;;;;5016638;28;20093;-84
2022/12/15 09:35:21;;;;;;;4.97;3.90;;;;;;;;;;5014785;28;20030;-83
2022/12/15 09:37:46;;;;;;;6.55;3.90;;;;;;;;;;5024384;28;20035;-82
2022/12/15 09:40:12;;;;;;;7.47;5.43;;;;;;;;;;5025141;28;20033;-83
2022/12/15 09:42:38;;;;;;;8.20;5.90;;;;;;;;;;5022711;28;20465;-85
2022/12/15 09:45:16;;;;;;;5.53;4.43;;;;;;;;;;5018133;28;20370;-84
2022/12/15 09:48:05;;;;;;;10.43;6.07;;;;;;;;;;5021582;28;20389;-84
2022/12/15 09:50:37;;;;;;;8.27;6.03;;;;;;;;;;5019617;28;20033;-85
2022/12/15 09:53:04;;;;;;;11.15;7.53;;;;;;;;;;5018978;28;20377;-84
2022/12/15 09:55:31;;;;;;;9.15;6.60;;;;;;;;;;5010434;28;20018;-86
2022/12/15 09:58:07;;;;;;;11.60;7.40;;;;;;;;;;5014504;28;20057;-87
2022/12/15 10:00:55;;;;;;;11.82;7.88;;;;;;;;;;5016841;28;20058;-82
2022/12/15 10:03:49;;;;;;;9.35;6.43;;;;;;;;;;5019754;28;20608;-84
2022/12/15 10:06:19;;;;;;;10.57;8.07;;;;;;;;;;5017684;28;20025;-86
2022/12/15 10:08:52;;;;;;;9.65;6.40;;;;;;;;;;5018283;28;20029;-84
2022/12/15 10:11:36;;;;;;;11.38;8.23;;;;;;;;;;5021007;28;20171;-86
2022/12/15 10:14:18;;;;;;;12.82;6.68;;;;;;;;;;5017077;28;20026;-86
2022/12/15 10:17:02;;;;;;;12.35;7.97;;;;;;;;;;5023636;28;20018;-87
2022/12/15 10:19:39;;;;;;;9.52;5.72;;;;;;;;;;5034226;28;20037;-86
2022/12/15 10:22:09;;;;;;;9.52;5.63;;;;;;;;;;5016692;28;20029;-89
2022/12/15 10:24:35;;;;;;;9.52;6.05;;;;;;;;;;5021748;28;20029;-88
2022/12/15 10:27:15;;;;;;;10.52;6.82;;;;;;;;;;5019925;28;20041;-85
2022/12/15 10:29:53;;;;;;;12.45;6.45;;;;;;;;;;5016818;28;20025;-86
2022/12/15 10:32:29;;;;;;;8.60;7.70;;;;;;;;;;5017416;28;20026;-88
2022/12/15 10:34:55;;;;;;;6.78;5.75;;;;;;;;;;5021020;28;20096;-86
2022/12/15 10:37:20;;;;;;;10.48;7.05;;;;;;;;;;5022665;28;20064;-87
2022/12/15 10:39:48;;;;;;;17.77;11.13;;;;;;;;;;5017266;28;20032;-87
2022/12/15 10:42:20;;;;;;;15.30;9.77;;;;;;;;;;5018970;28;20029;-87
2022/12/15 10:44:49;;;;;;;14.38;11.20;;;;;;;;;;5017379;28;20022;-87
2022/12/15 10:47:30;;;;;;;17.47;10.40;;;;;;;;;;5017508;28;20033;-84
2022/12/15 10:50:22;;;;;;;15.93;9.05;;;;;;;;;;5021498;28;20037;-85
2022/12/15 10:52:48;;;;;;;9.65;6.55;;;;;;;;;;5021278;28;20026;-86
2022/12/15 10:55:37;;;;;;;16.98;8.10;;;;;;;;;;5019519;28;20021;-85
2022/12/15 10:58:14;;;;;;;11.57;6.88;;;;;;;;;;5023426;28;20544;-85
2022/12/15 11:00:39;;;;;;;16.52;6.88;;;;;;;;;;5019406;28;20493;-86
2022/12/15 11:03:23;;;;;;;15.85;7.95;;;;;;;;;;5019437;28;20030;-83
2022/12/15 11:05:55;;;;;;;15.32;9.90;;;;;;;;;;5024655;28;20022;-85
2022/12/15 11:08:23;;;;;;;13.23;7.70;;;;;;;;;;5025917;28;20029;-86
2022/12/15 11:14:04;;;;;;;7.60;5.80;;;;;;;;;;5018274;28;20048;-82
2022/12/15 11:16:30;;;;;;;12.93;7.45;;;;;;;;;;5016681;28;20022;-83
2022/12/15 11:19:12;;;;;;;10.93;6.05;;;;;;;;;;5021943;28;20107;-84
2022/12/15 11:21:47;;;;;;;9.40;6.93;;;;;;;;;;5034167;28;20029;-85
2022/12/15 11:24:25;;;;;;;6.25;4.43;;;;;;;;;;5020225;28;20029;-86
2022/12/15 11:27:12;;;;;;;7.50;5.13;;;;;;;;;;5022222;28;20059;-82
2022/12/15 11:29:48;;;;;;;9.80;6.22;;;;;;;;;;5022827;28;20030;-85
2022/12/15 11:32:14;;;;;;;6.07;4.20;;;;;;;;;;5024433;28;20057;-85
2022/12/15 11:34:43;;;;;;;11.50;6.63;;;;;;;;;;5024085;28;20056;-84
2022/12/15 11:37:39;;;;;;;10.18;7.15;;;;;;;;;;5021393;28;20434;-83
2022/12/15 11:40:39;;;;;;;11.10;7.55;;;;;;;;;;5019808;28;20057;-83
2022/12/15 11:43:13;;;;;;;14.38;8.40;;;;;;;;;;5018726;28;20047;-84
2022/12/15 11:46:04;;;;;;;12.88;7.88;;;;;;;;;;5016549;28;20049;-84
2022/12/15 11:48:48;;;;;;;10.10;6.40;;;;;;;;;;5021215;28;20355;-84
2022/12/15 11:51:19;;;;;;;10.05;7.63;;;;;;;;;;5026205;28;20025;-87
2022/12/15 11:54:04;;;;;;;15.30;7.68;;;;;;;;;;5016204;28;20111;-83
2022/12/15 11:56:38;;;;;;;15.95;8.70;;;;;;;;;;5022776;28;20474;-85
2022/12/15 11:59:28;;;;;;;11.52;8.52;;;;;;;;;;5019011;28;20125;-84
2022/12/15 12:02:15;;;;;;;17.10;7.72;;;;;;;;;;5018864;28;20555;-82
2022/12/15 12:05:18;;;;;;;18.67;10.10;;;;;;;;;;5022051;28;20389;-86
2022/12/15 12:07:47;;;;;;;11.80;7.50;;;;;;;;;;5014528;28;20439;-84
2022/12/15 12:10:22;;;;;;;15.90;6.95;;;;;;;;;;5019761;28;20033;-88
2022/12/15 12:13:08;;;;;;;11.50;7.72;;;;;;;;;;5016045;28;20060;-84
2022/12/15 12:15:48;;;;;;;9.73;7.00;;;;;;;;;;5018221;28;20112;-84
2022/12/15 12:18:23;;;;;;;8.88;5.80;;;;;;;;;;5024190;28;20065;-84
2022/12/15 12:20:57;;;;;;;15.55;6.28;;;;;;;;;;5019999;28;20029;-86
2022/12/15 12:23:30;;;;;;;9.25;6.03;;;;;;;;;;5039813;28;20040;-85
2022/12/15 12:26:25;;;;;;;9.10;6.10;;;;;;;;;;5022454;28;20073;-87
2022/12/15 12:29:24;;;;;;;10.57;6.63;;;;;;;;;;5015239;28;20056;-86
2022/12/15 12:31:54;;;;;;;9.48;5.97;;;;;;;;;;5020948;28;20441;-85
2022/12/15 12:35:08;;;;;;;11.18;5.93;;;;;;;;;;5016951;28;20490;-85
2022/12/15 12:37:39;;;;;;;10.18;5.25;;;;;;;;;;5019996;28;20430;-85
2022/12/15 12:40:17;;;;;;;6.22;4.57;;;;;;;;;;5005257;28;20036;-86
2022/12/15 12:42:47;;;;;;;6.13;4.47;;;;;;;;;;5008884;28;20053;-85
2022/12/15 12:45:13;;;;;;;;;;;;;;;;;;5022893;28;20045;-86
2022/12/15 12:47:43;;;;;;;11.18;5.15;;;;;;;;;;5021967;28;19913;-88
2022/12/15 12:50:17;;;;;;;8.55;5.65;;;;;;;;;;5015390;28;20030;-86
2022/12/15 12:52:52;;;;;;;5.95;3.70;;;;;;;;;;5020335;28;20174;-87
2022/12/15 12:55:31;;;;;;;10.88;4.78;;;;;;;;;;5021615;28;20025;-84
2022/12/15 12:57:57;;;;;;;8.73;5.38;;;;;;;;;;5016666;28;20037;-86
2022/12/15 13:00:27;;;;;;;20.77;7.85;;;;;;;;;;5018893;28;20058;-84
2022/12/15 13:03:07;;;;;;;7.90;5.43;;;;;;;;;;5022764;28;20060;-86
2022/12/15 13:05:36;;;;;;;10.40;5.95;;;;;;;;;;5020204;28;20038;-86
2022/12/15 13:08:04;;;;;;;8.95;5.95;;;;;;;;;;5020543;28;20100;-86
2022/12/15 13:10:41;;;;;;;10.05;7.80;;;;;;;;;;5024593;28;20037;-84
2022/12/15 13:13:28;;;;;;;9.57;5.40;;;;;;;;;;5021197;28;20086;-85
2022/12/15 13:16:21;;;;;;;7.47;4.65;;;;;;;;;;5018211;28;20037;-83
2022/12/15 13:19:05;;;;;;;7.03;4.13;;;;;;;;;;5014023;28;20033;-83
2022/12/15 13:21:40;;;;;;;9.73;5.15;;;;;;;;;;5037465;28;20116;-84
2022/12/15 13:24:31;;;;;;;10.18;4.85;;;;;;;;;;5018052;28;20073;-84
2022/12/15 13:27:25;;;;;;;10.40;5.93;;;;;;;;;;5020020;28;20022;-84
2022/12/15 13:30:08;;;;;;;7.00;4.57;;;;;;;;;;5018955;28;20041;-83
2022/12/15 13:32:38;;;;;;;8.93;5.82;;;;;;;;;;5023072;28;20513;-85
2022/12/15 13:35:12;;;;;;;5.35;3.58;;;;;;;;;;5017869;28;20037;-86
2022/12/15 13:37:57;;;;;;;12.45;5.50;;;;;;;;;;5024185;28;20100;-83
2022/12/15 13:40:50;;;;;;;9.38;4.60;;;;;;;;;;5018944;28;20117;-84
2022/12/15 13:43:27;;;;;;;7.63;4.28;;;;;;;;;;5018070;28;20035;-84
2022/12/15 13:46:09;;;;;;;6.95;3.78;;;;;;;;;;5018975;28;20367;-82
2022/12/15 13:48:45;;;;;;;9.52;4.32;;;;;;;;;;5015739;28;20037;-84
2022/12/15 13:51:33;;;;;;;6.63;4.10;;;;;;;;;;5017712;28;20033;-84
2022/12/15 13:54:03;;;;;;;5.00;3.63;;;;;;;;;;5024173;28;20048;-84
2022/12/15 13:56:54;;;;;;;6.75;4.00;;;;;;;;;;5021516;28;20477;-85
2022/12/15 13:59:32;;;;;;;12.70;6.63;;;;;;;;;;5021486;28;20050;-84
2022/12/15 14:01:57;;;;;;;5.93;4.53;;;;;;;;;;5017182;28;20041;-84
2022/12/15 14:04:23;;;;;;;14.00;4.90;;;;;;;;;;5021083;28;20460;-85
2022/12/15 14:06:58;;;;;;;6.63;4.75;;;;;;;;;;5014074;28;20021;-81
2022/12/15 14:09:34;;;;;;;10.40;3.97;;;;;;;;;;5024728;28;20034;-85
2022/12/15 14:12:03;;;;;;;12.00;7.78;;;;;;;;;;5037466;28;20083;-86
2022/12/15 14:14:33;;;;;;;16.95;5.72;;;;;;;;;;5016890;28;20022;-84
2022/12/15 14:17:07;;;;;;;9.20;6.13;;;;;;;;;;5024130;28;20022;-84
2022/12/15 14:19:41;;;;;;;10.52;4.22;;;;;;;;;;5016438;28;20517;-85
2022/12/15 14:22:27;;;;;;;6.63;4.97;;;;;;;;;;5018615;28;20030;-86
2022/12/15 14:24:58;;;;;;;7.20;4.85;;;;;;;;;;5023718;28;20394;-84
2022/12/15 14:27:29;;;;;;;5.80;3.42;;;;;;;;;;5017024;28;20048;-85
2022/12/15 14:30:34;;;;;;;5.13;3.65;;;;;;;;;;5019870;28;20029;-84
2022/12/15 14:33:08;;;;;;;8.75;6.82;;;;;;;;;;4984485;28;20031;-84
2022/12/15 14:35:41;;;;;;;5.32;3.47;;;;;;;;;;5023992;28;20041;-86
2022/12/15 14:38:11;;;;;;;3.97;2.78;;;;;;;;;;5024381;28;20026;-84
2022/12/15 14:40:38;;;;;;;2.45;1.88;;;;;;;;;;5016787;28;20079;-83
2022/12/15 14:43:09;;;;;;;4.15;3.05;;;;;;;;;;5023077;28;20531;-86
2022/12/15 14:45:34;;;;;;;1.80;1.70;;;;;;;;;;5020906;28;20122;-85
2022/12/15 14:48:05;;;;;;;5.68;3.30;;;;;;;;;;5023699;28;20163;-84
2022/12/15 14:50:32;;;;;;;1.90;1.50;;;;;;;;;;5019857;28;20036;-85
2022/12/15 14:53:06;;;;;;;10.77;2.42;;;;;;;;;;5023667;28;20026;-83
2022/12/15 14:55:36;;;;;;;1.75;1.65;;;;;;;;;;5022918;28;20382;-82
2022/12/15 14:58:25;;;;;;;3.08;2.00;;;;;;;;;;5025053;28;20087;-82
2022/12/15 15:00:53;;;;;;;2.67;1.58;;;;;;;;;;5019295;28;20049;-85
2022/12/15 15:03:41;;;;;;;3.92;2.83;;;;;;;;;;5027276;28;20033;-87
2022/12/15 15:06:09;;;;;;;6.90;3.40;;;;;;;;;;5019253;28;20038;-85
2022/12/15 15:08:47;;;;;;;4.40;2.83;;;;;;;;;;5020179;28;20025;-82
2022/12/15 15:11:19;;;;;;;9.00;6.72;;;;;;;;;;5025040;28;20116;-83
2022/12/15 15:13:45;;;;;;;1.75;1.60;;;;;;;;;;5018528;28;20489;-82
2022/12/15 15:16:16;;;;;;;2.95;1.98;;;;;;;;;;5022083;28;20014;-84
2022/12/15 15:18:42;;;;;;;1.58;1.48;;;;;;;;;;5019800;28;20029;-83
2022/12/15 15:21:16;;;;;;;3.22;1.73;;;;;;;;;;5021279;28;20025;-81
2022/12/15 15:24:18;;;;;;;2.20;1.45;;;;;;;;;;5017502;28;20025;-85
2022/12/15 15:26:44;;;;;;;1.42;1.25;;;;;;;;;;5030158;28;20036;-84
2022/12/15 15:29:34;;;;;;;2.33;1.60;;;;;;;;;;5020790;28;20025;-83
2022/12/15 15:32:15;;;;;;;3.35;2.20;;;;;;;;;;5017660;28;20469;-84
2022/12/15 15:34:41;;;;;;;2.53;1.45;;;;;;;;;;5026395;28;20532;-82
2022/12/15 15:37:24;;;;;;;3.03;2.35;;;;;;;;;;5024310;28;20030;-83
2022/12/15 15:39:51;;;;;;;3.58;1.60;;;;;;;;;;5025522;28;20108;-81
2022/12/15 15:42:17;;;;;;;3.30;2.30;;;;;;;;;;5016881;28;20040;-83
2022/12/15 15:44:42;;;;;;;3.72;2.65;;;;;;;;;;5019385;28;20049;-81
2022/12/15 15:47:22;;;;;;;2.72;2.10;;;;;;;;;;5020758;28;20072;-81
2022/12/15 15:49:48;;;;;;;3.33;2.03;;;;;;;;;;5021805;28;20025;-84
2022/12/15 15:52:13;;;;;;;3.42;2.42;;;;;;;;;;5020509;28;20030;-81
2022/12/15 15:54:39;;;;;;;2.05;1.55;;;;;;;;;;5022790;28;20051;-83
2022/12/15 15:57:04;;;;;;;2.05;1.55;;;;;;;;;;5014022;28;20026;-82
2022/12/15 15:59:30;;;;;;;2.78;1.55;;;;;;;;;;5019762;28;20099;-84
2022/12/15 16:01:56;;;;;;;6.47;3.03;;;;;;;;;;5019085;28;20056;-84
2022/12/15 16:04:25;;;;;;;9.30;5.18;;;;;;;;;;5020546;28;20540;-85
2022/12/15 16:06:51;;;;;;;4.10;2.63;;;;;;;;;;5019364;28;20051;-83
2022/12/15 16:09:16;;;;;;;2.35;1.70;;;;;;;;;;5020318;28;20080;-85
2022/12/15 16:11:43;;;;;;;2.15;1.67;;;;;;;;;;5018534;28;20034;-83
2022/12/15 16:14:13;;;;;;;4.88;2.28;;;;;;;;;;5018781;28;20026;-84
2022/12/15 16:16:40;;;;;;;2.95;1.77;;;;;;;;;;5020407;28;20017;-82
2022/12/15 16:19:06;;;;;;;3.72;2.30;;;;;;;;;;5018877;28;20430;-83
2022/12/15 16:21:31;;;;;;;4.35;3.38;;;;;;;;;;5019367;28;20189;-83
2022/12/15 16:23:57;;;;;;;7.18;4.15;;;;;;;;;;5018611;28;20028;-82
2022/12/15 16:26:31;;;;;;;7.10;5.50;;;;;;;;;;5019377;28;20108;-85
2022/12/15 16:28:56;;;;;;;4.97;3.40;;;;;;;;;;5019584;28;20030;-84
2022/12/15 16:31:31;;;;;;;7.05;5.25;;;;;;;;;;5017156;28;20393;-83
2022/12/15 16:33:56;;;;;;;5.60;5.07;;;;;;;;;;5021039;28;20029;-83
2022/12/15 16:36:22;;;;;;;5.38;3.40;;;;;;;;;;5021386;28;20028;-84
2022/12/15 16:38:47;;;;;;;5.78;4.32;;;;;;;;;;5019822;28;20124;-83
2022/12/15 16:41:15;;;;;;;4.75;3.53;;;;;;;;;;5021987;28;20033;-84
2022/12/15 16:43:41;;;;;;;12.35;5.75;;;;;;;;;;5019294;28;20021;-86
2022/12/15 16:46:12;;;;;;;8.75;4.85;;;;;;;;;;5019146;28;20462;-82
2022/12/15 16:48:38;;;;;;;6.70;4.68;;;;;;;;;;5014949;28;20021;-84
2022/12/15 16:51:06;;;;;;;4.57;3.50;;;;;;;;;;5034238;28;20045;-84
2022/12/15 16:53:35;;;;;;;6.47;4.78;;;;;;;;;;5023889;28;20079;-81
2022/12/15 16:56:04;;;;;;;7.50;4.55;;;;;;;;;;5022162;28;20033;-86
2022/12/15 16:58:32;;;;;;;4.80;3.27;;;;;;;;;;5019177;28;20021;-82
2022/12/15 17:00:58;;;;;;;7.15;4.78;;;;;;;;;;5019193;28;20057;-84
2022/12/15 17:03:27;;;;;;;7.00;4.78;;;;;;;;;;5018946;28;20129;-85
2022/12/15 17:06:05;;;;;;;10.93;6.00;;;;;;;;;;5024687;28;20036;-82
2022/12/15 17:08:44;;;;;;;18.02;9.52;;;;;;;;;;5019975;28;20079;-82
2022/12/15 17:11:16;;;;;;;52.03;20.92;;;;;;;;;;5020367;28;20033;-84
2022/12/15 17:13:46;;;;;;;32.28;18.42;;;;;;;;;;5018462;28;20021;-84
2022/12/15 17:16:15;;;;;;;;;;;;;;;;;;5019105;28;20036;-82
2022/12/15 17:18:41;;;;;;;25.33;12.15;;;;;;;;;;5016280;28;20349;-84
2022/12/15 17:21:13;;;;;;;21.83;11.27;;;;;;;;;;5018765;28;20062;-85
2022/12/15 17:23:42;;;;;;;22.70;9.88;;;;;;;;;;5019721;28;20031;-82
2022/12/15 17:26:09;;;;;;;20.50;8.45;;;;;;;;;;5021267;28;20492;-84
2022/12/15 17:28:39;;;;;;;11.85;6.90;;;;;;;;;;5017188;28;20189;-83
2022/12/15 17:31:05;;;;;;;15.13;10.10;;;;;;;;;;5015006;28;20398;-84